sensor_id;sensor_type;location;lat;lon;timestamp;pressure;altitude;pressure_sealevel;temperature;humidity
25947;BME280;13745;51.470;9.894;2022-07-01T00:01:17;99092.38;;;22.61;55.44
25947;BME280;13745;51.470;9.894;2022-07-01T00:04:04;99095.81;;;22.51;55.45
25947;BME280;13745;51.470;9.894;2022-07-01T00:06:49;99099.22;;;22.38;55.54
25947;BME280;13745;51.470;9.894;2022-07-01T00:09:35;99097.91;;;22.25;55.59
25947;BME280;13745;51.470;9.894;2022-07-01T00:12:21;99083.94;;;22.12;55.61
25947;BME280;13745;51.470;9.894;2022-07-01T00:15:09;99079.88;;;22.02;55.77
25947;BME280;13745;51.470;9.894;2022-07-01T00:17:55;99095.59;;;21.99;55.79
25947;BME280;13745;51.470;9.894;2022-07-01T00:20:41;99079.69;;;21.89;55.79
25947;BME280;13745;51.470;9.894;2022-07-01T00:23:28;99080.41;;;21.82;55.75
25947;BME280;13745;51.470;9.894;2022-07-01T00:26:14;99094.88;;;21.76;55.84
25947;BME280;13745;51.470;9.894;2022-07-01T00:28:59;99094.78;;;21.69;56.02
25947;BME280;13745;51.470;9.894;2022-07-01T00:31:47;99102.28;;;21.69;56.02
25947;BME280;13745;51.470;9.894;2022-07-01T00:34:33;99103.81;;;21.66;56.11
25947;BME280;13745;51.470;9.894;2022-07-01T00:37:19;99111.63;;;21.64;56.05
25947;BME280;13745;51.470;9.894;2022-07-01T00:40:06;99110.81;;;21.60;56.05
25947;BME280;13745;51.470;9.894;2022-07-01T00:42:53;99114.31;;;21.57;56.16
25947;BME280;13745;51.470;9.894;2022-07-01T00:45:43;99130.34;;;21.52;56.28
25947;BME280;13745;51.470;9.894;2022-07-01T00:48:31;99121.63;;;21.47;56.32
25947;BME280;13745;51.470;9.894;2022-07-01T00:51:18;99134.97;;;21.45;56.34
25947;BME280;13745;51.470;9.894;2022-07-01T00:54:04;99129.06;;;21.43;56.28
25947;BME280;13745;51.470;9.894;2022-07-01T00:56:50;99128.19;;;21.39;56.38
25947;BME280;13745;51.470;9.894;2022-07-01T00:59:36;99135.59;;;21.35;56.12
25947;BME280;13745;51.470;9.894;2022-07-01T01:02:22;99117.44;;;21.31;56.30
25947;BME280;13745;51.470;9.894;2022-07-01T01:05:10;99109.47;;;21.26;56.46
25947;BME280;13745;51.470;9.894;2022-07-01T01:07:55;99105.00;;;21.18;56.62
25947;BME280;13745;51.470;9.894;2022-07-01T01:10:42;99107.69;;;21.14;56.75
25947;BME280;13745;51.470;9.894;2022-07-01T01:13:28;99120.25;;;21.12;56.67
25947;BME280;13745;51.470;9.894;2022-07-01T01:16:18;99138.72;;;21.11;56.69
25947;BME280;13745;51.470;9.894;2022-07-01T01:19:04;99136.75;;;21.12;56.67
25947;BME280;13745;51.470;9.894;2022-07-01T01:21:53;99141.06;;;21.09;56.76
25947;BME280;13745;51.470;9.894;2022-07-01T01:24:38;99138.97;;;21.03;56.88
25947;BME280;13745;51.470;9.894;2022-07-01T01:27:24;99146.00;;;21.01;57.04
25947;BME280;13745;51.470;9.894;2022-07-01T01:30:12;99156.19;;;20.97;57.15
25947;BME280;13745;51.470;9.894;2022-07-01T01:32:58;99178.94;;;20.94;57.18
25947;BME280;13745;51.470;9.894;2022-07-01T01:35:44;99189.06;;;20.90;57.17
25947;BME280;13745;51.470;9.894;2022-07-01T01:38:31;99187.06;;;20.87;57.18
25947;BME280;13745;51.470;9.894;2022-07-01T01:41:17;99198.44;;;20.86;57.27
25947;BME280;13745;51.470;9.894;2022-07-01T01:44:03;99206.91;;;20.77;57.33
25947;BME280;13745;51.470;9.894;2022-07-01T01:46:49;99202.84;;;20.68;57.36
25947;BME280;13745;51.470;9.894;2022-07-01T01:49:35;99226.28;;;20.62;57.38
25947;BME280;13745;51.470;9.894;2022-07-01T01:52:21;99229.72;;;20.56;57.30
25947;BME280;13745;51.470;9.894;2022-07-01T01:58:41;99261.03;;;20.51;57.37
25947;BME280;13745;51.470;9.894;2022-07-01T02:01:28;99256.69;;;20.50;57.57
25947;BME280;13745;51.470;9.894;2022-07-01T02:04:15;99255.41;;;20.44;57.85
25947;BME280;13745;51.470;9.894;2022-07-01T02:07:01;99243.41;;;20.37;57.96
25947;BME280;13745;51.470;9.894;2022-07-01T02:09:47;99249.56;;;20.31;58.10
25947;BME280;13745;51.470;9.894;2022-07-01T02:12:33;99257.59;;;20.20;58.48
25947;BME280;13745;51.470;9.894;2022-07-01T02:15:20;99277.81;;;20.13;58.49
25947;BME280;13745;51.470;9.894;2022-07-01T02:18:06;99292.59;;;20.05;58.56
25947;BME280;13745;51.470;9.894;2022-07-01T02:20:52;99306.59;;;20.00;58.69
25947;BME280;13745;51.470;9.894;2022-07-01T02:23:38;99304.06;;;19.92;58.85
25947;BME280;13745;51.470;9.894;2022-07-01T02:26:23;99293.38;;;19.90;58.77
25947;BME280;13745;51.470;9.894;2022-07-01T02:29:09;99303.06;;;19.84;58.88
25947;BME280;13745;51.470;9.894;2022-07-01T02:31:56;99295.44;;;19.78;58.96
25947;BME280;13745;51.470;9.894;2022-07-01T02:34:42;99294.91;;;19.73;59.25
25947;BME280;13745;51.470;9.894;2022-07-01T02:37:28;99290.94;;;19.70;59.15
25947;BME280;13745;51.470;9.894;2022-07-01T02:40:14;99287.75;;;19.68;59.20
25947;BME280;13745;51.470;9.894;2022-07-01T02:43:00;99301.84;;;19.67;59.16
25947;BME280;13745;51.470;9.894;2022-07-01T02:45:46;99299.09;;;19.67;59.19
25947;BME280;13745;51.470;9.894;2022-07-01T02:48:33;99296.69;;;19.65;59.32
25947;BME280;13745;51.470;9.894;2022-07-01T02:51:18;99317.75;;;19.61;59.24
25947;BME280;13745;51.470;9.894;2022-07-01T02:54:04;99317.91;;;19.53;59.31
25947;BME280;13745;51.470;9.894;2022-07-01T02:56:50;99321.66;;;19.45;59.39
25947;BME280;13745;51.470;9.894;2022-07-01T02:59:36;99304.19;;;19.38;59.64
25947;BME280;13745;51.470;9.894;2022-07-01T03:02:22;99307.56;;;19.31;59.55
25947;BME280;13745;51.470;9.894;2022-07-01T03:05:10;99312.84;;;19.25;59.76
25947;BME280;13745;51.470;9.894;2022-07-01T03:07:56;99324.53;;;19.22;59.69
25947;BME280;13745;51.470;9.894;2022-07-01T03:10:41;99337.81;;;19.20;59.66
25947;BME280;13745;51.470;9.894;2022-07-01T03:13:27;99361.97;;;19.14;59.64
25947;BME280;13745;51.470;9.894;2022-07-01T03:16:13;99361.78;;;19.07;59.80
25947;BME280;13745;51.470;9.894;2022-07-01T03:18:59;99350.25;;;19.02;59.79
25947;BME280;13745;51.470;9.894;2022-07-01T03:21:47;99350.44;;;18.94;59.84
25947;BME280;13745;51.470;9.894;2022-07-01T03:24:33;99351.81;;;18.88;59.87
25947;BME280;13745;51.470;9.894;2022-07-01T03:27:20;99347.72;;;18.82;59.80
25947;BME280;13745;51.470;9.894;2022-07-01T03:30:06;99345.97;;;18.78;59.84
25947;BME280;13745;51.470;9.894;2022-07-01T03:32:52;99342.44;;;18.77;59.78
25947;BME280;13745;51.470;9.894;2022-07-01T03:35:38;99334.00;;;18.82;59.69
25947;BME280;13745;51.470;9.894;2022-07-01T03:38:26;99338.00;;;18.84;59.58
25947;BME280;13745;51.470;9.894;2022-07-01T03:41:12;99330.19;;;18.86;59.45
25947;BME280;13745;51.470;9.894;2022-07-01T03:43:58;99326.44;;;18.91;59.20
25947;BME280;13745;51.470;9.894;2022-07-01T03:46:44;99337.94;;;18.96;59.09
25947;BME280;13745;51.470;9.894;2022-07-01T03:49:30;99340.69;;;18.96;58.87
25947;BME280;13745;51.470;9.894;2022-07-01T03:52:16;99343.97;;;19.02;58.88
25947;BME280;13745;51.470;9.894;2022-07-01T03:55:03;99355.88;;;19.06;58.57
25947;BME280;13745;51.470;9.894;2022-07-01T03:57:48;99360.75;;;19.12;58.38
25947;BME280;13745;51.470;9.894;2022-07-01T04:00:36;99370.44;;;19.21;58.15
25947;BME280;13745;51.470;9.894;2022-07-01T04:03:22;99367.06;;;19.28;57.81
25947;BME280;13745;51.470;9.894;2022-07-01T04:06:07;99367.53;;;19.29;57.82
25947;BME280;13745;51.470;9.894;2022-07-01T04:08:54;99364.16;;;19.36;57.62
25947;BME280;13745;51.470;9.894;2022-07-01T04:11:42;99357.44;;;19.33;57.68
25947;BME280;13745;51.470;9.894;2022-07-01T04:14:27;99351.94;;;19.33;57.43
25947;BME280;13745;51.470;9.894;2022-07-01T04:17:15;99348.31;;;19.29;57.45
25947;BME280;13745;51.470;9.894;2022-07-01T04:20:01;99354.84;;;19.25;57.54
25947;BME280;13745;51.470;9.894;2022-07-01T04:22:46;99359.53;;;19.25;57.52
25947;BME280;13745;51.470;9.894;2022-07-01T04:25:31;99358.03;;;19.27;57.54
25947;BME280;13745;51.470;9.894;2022-07-01T04:28:19;99349.56;;;19.32;57.44
25947;BME280;13745;51.470;9.894;2022-07-01T04:31:05;99344.22;;;19.39;57.39
25947;BME280;13745;51.470;9.894;2022-07-01T04:33:51;99347.53;;;19.44;57.34
25947;BME280;13745;51.470;9.894;2022-07-01T04:36:38;99372.88;;;19.53;56.92
25947;BME280;13745;51.470;9.894;2022-07-01T04:39:23;99401.16;;;19.53;56.98
25947;BME280;13745;51.470;9.894;2022-07-01T04:42:09;99408.50;;;19.50;56.76
25947;BME280;13745;51.470;9.894;2022-07-01T04:44:57;99415.22;;;19.52;56.87
25947;BME280;13745;51.470;9.894;2022-07-01T04:47:43;99417.09;;;19.48;56.79
25947;BME280;13745;51.470;9.894;2022-07-01T04:50:28;99403.56;;;19.55;56.63
25947;BME280;13745;51.470;9.894;2022-07-01T04:53:15;99395.03;;;19.60;56.45
25947;BME280;13745;51.470;9.894;2022-07-01T04:56:00;99388.16;;;19.66;56.24
25947;BME280;13745;51.470;9.894;2022-07-01T04:58:46;99372.94;;;19.68;56.16
25947;BME280;13745;51.470;9.894;2022-07-01T05:01:34;99378.00;;;19.66;56.14
25947;BME280;13745;51.470;9.894;2022-07-01T05:04:19;99384.50;;;19.62;56.23
25947;BME280;13745;51.470;9.894;2022-07-01T05:07:05;99377.69;;;19.56;56.38
25947;BME280;13745;51.470;9.894;2022-07-01T05:09:51;99382.47;;;19.59;56.32
25947;BME280;13745;51.470;9.894;2022-07-01T05:12:37;99384.06;;;19.60;56.23
25947;BME280;13745;51.470;9.894;2022-07-01T05:15:23;99377.06;;;19.62;56.15
25947;BME280;13745;51.470;9.894;2022-07-01T05:18:10;99376.38;;;19.65;56.14
25947;BME280;13745;51.470;9.894;2022-07-01T05:21:13;99385.16;;;19.71;56.14
25947;BME280;13745;51.470;9.894;2022-07-01T05:24:16;99392.47;;;19.78;55.96
25947;BME280;13745;51.470;9.894;2022-07-01T05:27:03;99391.03;;;19.84;55.99
25947;BME280;13745;51.470;9.894;2022-07-01T05:29:49;99398.13;;;19.85;55.90
25947;BME280;13745;51.470;9.894;2022-07-01T05:32:34;99406.81;;;19.87;56.03
25947;BME280;13745;51.470;9.894;2022-07-01T05:35:22;99416.13;;;19.83;56.31
25947;BME280;13745;51.470;9.894;2022-07-01T05:38:08;99418.31;;;19.77;56.34
25947;BME280;13745;51.470;9.894;2022-07-01T05:40:54;99421.34;;;19.73;56.68
25947;BME280;13745;51.470;9.894;2022-07-01T05:43:40;99417.25;;;19.67;56.89
25947;BME280;13745;51.470;9.894;2022-07-01T05:46:25;99414.28;;;19.60;56.89
25947;BME280;13745;51.470;9.894;2022-07-01T05:49:11;99422.31;;;19.53;57.12
25947;BME280;13745;51.470;9.894;2022-07-01T05:51:58;99422.94;;;19.47;57.54
25947;BME280;13745;51.470;9.894;2022-07-01T05:54:44;99415.03;;;19.45;57.59
25947;BME280;13745;51.470;9.894;2022-07-01T05:57:30;99422.72;;;19.40;58.02
25947;BME280;13745;51.470;9.894;2022-07-01T06:00:16;99410.16;;;19.39;58.45
25947;BME280;13745;51.470;9.894;2022-07-01T06:03:02;99414.75;;;19.35;58.60
25947;BME280;13745;51.470;9.894;2022-07-01T06:05:48;99415.00;;;19.30;58.75
25947;BME280;13745;51.470;9.894;2022-07-01T06:08:35;99418.13;;;19.29;59.02
25947;BME280;13745;51.470;9.894;2022-07-01T06:11:21;99434.13;;;19.27;59.05
25947;BME280;13745;51.470;9.894;2022-07-01T06:14:07;99430.94;;;19.25;59.24
25947;BME280;13745;51.470;9.894;2022-07-01T06:16:53;99437.13;;;19.22;59.33
25947;BME280;13745;51.470;9.894;2022-07-01T06:19:39;99444.47;;;19.18;59.32
25947;BME280;13745;51.470;9.894;2022-07-01T06:22:25;99461.16;;;19.13;59.45
25947;BME280;13745;51.470;9.894;2022-07-01T06:25:12;99454.06;;;19.12;59.70
25947;BME280;13745;51.470;9.894;2022-07-01T06:27:58;99455.59;;;19.09;59.75
25947;BME280;13745;51.470;9.894;2022-07-01T06:30:44;99458.69;;;19.08;59.69
25947;BME280;13745;51.470;9.894;2022-07-01T06:33:30;99452.38;;;19.07;59.82
25947;BME280;13745;51.470;9.894;2022-07-01T06:36:16;99438.31;;;19.09;59.74
25947;BME280;13745;51.470;9.894;2022-07-01T06:39:02;99436.91;;;19.15;59.66
25947;BME280;13745;51.470;9.894;2022-07-01T06:41:49;99435.38;;;19.29;59.49
25947;BME280;13745;51.470;9.894;2022-07-01T06:44:35;99443.22;;;19.42;59.28
25947;BME280;13745;51.470;9.894;2022-07-01T06:47:21;99463.88;;;19.51;59.11
25947;BME280;13745;51.470;9.894;2022-07-01T06:50:07;99469.00;;;19.65;58.99
25947;BME280;13745;51.470;9.894;2022-07-01T06:52:53;99482.50;;;19.70;58.93
25947;BME280;13745;51.470;9.894;2022-07-01T06:55:39;99483.75;;;19.60;59.16
25947;BME280;13745;51.470;9.894;2022-07-01T06:58:26;99484.38;;;19.54;59.38
25947;BME280;13745;51.470;9.894;2022-07-01T07:01:12;99481.28;;;19.55;59.33
25947;BME280;13745;51.470;9.894;2022-07-01T07:03:58;99504.72;;;19.53;59.45
25947;BME280;13745;51.470;9.894;2022-07-01T07:06:44;99499.84;;;19.47;59.53
25947;BME280;13745;51.470;9.894;2022-07-01T07:09:30;99512.13;;;19.37;59.62
25947;BME280;13745;51.470;9.894;2022-07-01T07:12:16;99516.97;;;19.29;59.82
25947;BME280;13745;51.470;9.894;2022-07-01T07:15:04;99509.22;;;19.19;59.99
25947;BME280;13745;51.470;9.894;2022-07-01T07:17:49;99513.31;;;19.13;60.22
25947;BME280;13745;51.470;9.894;2022-07-01T07:20:36;99519.53;;;19.10;60.13
25947;BME280;13745;51.470;9.894;2022-07-01T07:23:22;99514.38;;;19.08;60.14
25947;BME280;13745;51.470;9.894;2022-07-01T07:26:08;99510.38;;;19.06;60.13
25947;BME280;13745;51.470;9.894;2022-07-01T07:28:54;99513.59;;;19.08;60.16
25947;BME280;13745;51.470;9.894;2022-07-01T07:31:41;99507.38;;;19.11;60.27
25947;BME280;13745;51.470;9.894;2022-07-01T07:34:27;99522.81;;;19.15;60.15
25947;BME280;13745;51.470;9.894;2022-07-01T07:37:13;99524.75;;;19.15;60.18
25947;BME280;13745;51.470;9.894;2022-07-01T07:39:59;99508.28;;;19.15;60.22
25947;BME280;13745;51.470;9.894;2022-07-01T07:42:46;99517.09;;;19.20;60.27
25947;BME280;13745;51.470;9.894;2022-07-01T07:45:32;99514.44;;;19.24;60.14
25947;BME280;13745;51.470;9.894;2022-07-01T07:48:19;99510.09;;;19.23;60.08
25947;BME280;13745;51.470;9.894;2022-07-01T07:51:05;99519.16;;;19.23;60.02
25947;BME280;13745;51.470;9.894;2022-07-01T07:53:51;99526.13;;;19.21;59.86
25947;BME280;13745;51.470;9.894;2022-07-01T07:56:37;99543.75;;;19.20;59.93
25947;BME280;13745;51.470;9.894;2022-07-01T07:59:23;99544.09;;;19.18;60.11
25947;BME280;13745;51.470;9.894;2022-07-01T08:02:09;99541.00;;;19.20;59.91
25947;BME280;13745;51.470;9.894;2022-07-01T08:04:56;99552.34;;;19.18;59.85
25947;BME280;13745;51.470;9.894;2022-07-01T08:07:43;99550.28;;;19.15;59.47
25947;BME280;13745;51.470;9.894;2022-07-01T08:10:28;99567.78;;;19.11;59.82
25947;BME280;13745;51.470;9.894;2022-07-01T08:13:14;99563.19;;;19.15;59.64
25947;BME280;13745;51.470;9.894;2022-07-01T08:16:00;99570.41;;;19.19;59.42
25947;BME280;13745;51.470;9.894;2022-07-01T08:18:46;99577.59;;;19.24;59.38
25947;BME280;13745;51.470;9.894;2022-07-01T08:21:33;99573.81;;;19.28;59.15
25947;BME280;13745;51.470;9.894;2022-07-01T08:24:19;99586.63;;;19.36;59.23
25947;BME280;13745;51.470;9.894;2022-07-01T08:27:06;99578.97;;;19.41;59.07
25947;BME280;13745;51.470;9.894;2022-07-01T08:29:52;99588.56;;;19.47;58.93
25947;BME280;13745;51.470;9.894;2022-07-01T08:32:37;99590.16;;;19.48;58.85
25947;BME280;13745;51.470;9.894;2022-07-01T08:35:23;99591.97;;;19.56;58.53
25947;BME280;13745;51.470;9.894;2022-07-01T08:38:11;99603.88;;;19.60;58.51
25947;BME280;13745;51.470;9.894;2022-07-01T08:40:57;99603.16;;;19.63;58.51
25947;BME280;13745;51.470;9.894;2022-07-01T08:43:42;99599.88;;;19.69;58.42
25947;BME280;13745;51.470;9.894;2022-07-01T08:46:29;99599.03;;;19.80;58.01
25947;BME280;13745;51.470;9.894;2022-07-01T08:49:15;99597.31;;;20.03;57.71
25947;BME280;13745;51.470;9.894;2022-07-01T08:52:02;99590.22;;;20.29;57.17
25947;BME280;13745;51.470;9.894;2022-07-01T08:54:49;99593.47;;;20.46;56.81
25947;BME280;13745;51.470;9.894;2022-07-01T08:57:35;99596.22;;;20.61;56.55
25947;BME280;13745;51.470;9.894;2022-07-01T09:00:21;99598.53;;;20.74;56.29
25947;BME280;13745;51.470;9.894;2022-07-01T09:03:07;99588.16;;;20.83;56.14
25947;BME280;13745;51.470;9.894;2022-07-01T09:05:53;99602.63;;;20.95;55.88
25947;BME280;13745;51.470;9.894;2022-07-01T09:08:39;99604.75;;;21.02;55.43
25947;BME280;13745;51.470;9.894;2022-07-01T09:11:26;99620.03;;;20.99;55.35
25947;BME280;13745;51.470;9.894;2022-07-01T09:14:15;99622.25;;;20.94;55.38
25947;BME280;13745;51.470;9.894;2022-07-01T09:17:03;99621.63;;;20.85;55.50
25947;BME280;13745;51.470;9.894;2022-07-01T09:19:50;99619.41;;;20.75;55.52
25947;BME280;13745;51.470;9.894;2022-07-01T09:22:36;99626.88;;;20.75;55.62
25947;BME280;13745;51.470;9.894;2022-07-01T09:25:26;99619.84;;;20.77;55.50
25947;BME280;13745;51.470;9.894;2022-07-01T09:28:15;99618.97;;;20.73;55.51
25947;BME280;13745;51.470;9.894;2022-07-01T09:31:01;99629.16;;;20.73;55.51
25947;BME280;13745;51.470;9.894;2022-07-01T09:34:02;99633.88;;;20.72;55.45
25947;BME280;13745;51.470;9.894;2022-07-01T09:36:56;99632.28;;;20.71;55.39
25947;BME280;13745;51.470;9.894;2022-07-01T09:39:44;99635.31;;;20.66;55.46
25947;BME280;13745;51.470;9.894;2022-07-01T09:42:30;99634.50;;;20.66;55.40
25947;BME280;13745;51.470;9.894;2022-07-01T09:45:18;99631.03;;;20.69;55.30
25947;BME280;13745;51.470;9.894;2022-07-01T09:48:04;99631.56;;;20.74;55.08
25947;BME280;13745;51.470;9.894;2022-07-01T09:50:50;99624.66;;;20.80;54.77
25947;BME280;13745;51.470;9.894;2022-07-01T09:53:36;99624.81;;;20.87;54.54
25947;BME280;13745;51.470;9.894;2022-07-01T09:56:22;99619.94;;;20.96;54.28
25947;BME280;13745;51.470;9.894;2022-07-01T09:59:08;99623.22;;;21.16;54.08
25947;BME280;13745;51.470;9.894;2022-07-01T10:01:56;99629.69;;;21.54;53.40
25947;BME280;13745;51.470;9.894;2022-07-01T10:04:47;99626.88;;;21.88;52.70
25947;BME280;13745;51.470;9.894;2022-07-01T10:07:42;99643.19;;;22.11;52.33
25947;BME280;13745;51.470;9.894;2022-07-01T10:10:41;99637.81;;;22.37;51.77
25947;BME280;13745;51.470;9.894;2022-07-01T10:13:31;99625.56;;;22.56;51.33
25947;BME280;13745;51.470;9.894;2022-07-01T10:16:19;99633.50;;;22.58;51.45
25947;BME280;13745;51.470;9.894;2022-07-01T10:19:24;99630.22;;;22.52;51.32
25947;BME280;13745;51.470;9.894;2022-07-01T10:22:35;99626.13;;;22.43;51.48
25947;BME280;13745;51.470;9.894;2022-07-01T10:28:42;99623.00;;;22.07;52.00
25947;BME280;13745;51.470;9.894;2022-07-01T10:31:37;99627.50;;;21.97;52.17
25947;BME280;13745;51.470;9.894;2022-07-01T10:34:24;99623.81;;;21.74;52.55
25947;BME280;13745;51.470;9.894;2022-07-01T10:37:18;99629.31;;;21.55;52.80
25947;BME280;13745;51.470;9.894;2022-07-01T10:40:04;99642.31;;;21.40;52.82
25947;BME280;13745;51.470;9.894;2022-07-01T10:42:57;99628.91;;;21.23;52.69
25947;BME280;13745;51.470;9.894;2022-07-01T10:45:43;99628.13;;;21.08;52.74
25947;BME280;13745;51.470;9.894;2022-07-01T10:48:31;99626.63;;;20.95;52.70
25947;BME280;13745;51.470;9.894;2022-07-01T10:51:42;99632.00;;;20.76;52.64
25947;BME280;13745;51.470;9.894;2022-07-01T10:54:45;99634.50;;;20.66;52.97
25947;BME280;13745;51.470;9.894;2022-07-01T10:57:35;99632.81;;;20.62;53.10
25947;BME280;13745;51.470;9.894;2022-07-01T11:00:33;99623.38;;;20.63;53.31
25947;BME280;13745;51.470;9.894;2022-07-01T11:03:20;99628.38;;;20.72;53.13
25947;BME280;13745;51.470;9.894;2022-07-01T11:06:07;99629.00;;;20.81;53.31
25947;BME280;13745;51.470;9.894;2022-07-01T11:08:55;99626.34;;;20.85;53.34
25947;BME280;13745;51.470;9.894;2022-07-01T11:11:41;99631.03;;;20.84;53.47
25947;BME280;13745;51.470;9.894;2022-07-01T11:14:27;99640.03;;;20.81;53.70
25947;BME280;13745;51.470;9.894;2022-07-01T11:17:13;99649.97;;;20.86;53.63
25947;BME280;13745;51.470;9.894;2022-07-01T11:20:00;99656.00;;;20.91;53.81
25947;BME280;13745;51.470;9.894;2022-07-01T11:22:47;99660.47;;;20.95;53.80
25947;BME280;13745;51.470;9.894;2022-07-01T11:25:34;99674.94;;;21.08;53.73
25947;BME280;13745;51.470;9.894;2022-07-01T11:28:20;99683.75;;;21.28;53.67
25947;BME280;13745;51.470;9.894;2022-07-01T11:31:06;99689.84;;;21.67;53.46
25947;BME280;13745;51.470;9.894;2022-07-01T11:33:51;99686.22;;;21.97;53.02
25947;BME280;13745;51.470;9.894;2022-07-01T11:36:42;99691.56;;;22.05;52.96
25947;BME280;13745;51.470;9.894;2022-07-01T11:39:46;99673.09;;;22.09;52.69
25947;BME280;13745;51.470;9.894;2022-07-01T11:42:34;99665.84;;;22.20;52.46
25947;BME280;13745;51.470;9.894;2022-07-01T11:45:25;99672.09;;;22.36;52.01
25947;BME280;13745;51.470;9.894;2022-07-01T11:48:11;99679.00;;;22.45;51.69
25947;BME280;13745;51.470;9.894;2022-07-01T11:50:58;99668.16;;;22.37;51.64
25947;BME280;13745;51.470;9.894;2022-07-01T11:53:45;99667.66;;;22.31;51.58
25947;BME280;13745;51.470;9.894;2022-07-01T11:56:35;99658.88;;;22.26;51.53
25947;BME280;13745;51.470;9.894;2022-07-01T11:59:24;99664.09;;;22.12;51.68
25947;BME280;13745;51.470;9.894;2022-07-01T12:02:12;99665.56;;;22.06;51.73
25947;BME280;13745;51.470;9.894;2022-07-01T12:04:59;99658.72;;;22.00;51.87
25947;BME280;13745;51.470;9.894;2022-07-01T12:07:45;99668.41;;;21.95;51.91
25947;BME280;13745;51.470;9.894;2022-07-01T12:10:31;99666.38;;;21.92;51.57
25947;BME280;13745;51.470;9.894;2022-07-01T12:13:21;99664.88;;;21.94;51.49
25947;BME280;13745;51.470;9.894;2022-07-01T12:16:10;99666.63;;;22.02;51.36
25947;BME280;13745;51.470;9.894;2022-07-01T12:18:58;99669.47;;;22.05;51.37
25947;BME280;13745;51.470;9.894;2022-07-01T12:21:49;99669.19;;;22.29;51.03
25947;BME280;13745;51.470;9.894;2022-07-01T12:24:35;99676.56;;;22.62;50.50
25947;BME280;13745;51.470;9.894;2022-07-01T12:27:22;99682.03;;;22.99;49.92
25947;BME280;13745;51.470;9.894;2022-07-01T12:30:10;99673.94;;;23.32;49.16
25947;BME280;13745;51.470;9.894;2022-07-01T12:33:08;99679.81;;;23.52;48.63
25947;BME280;13745;51.470;9.894;2022-07-01T12:35:54;99673.97;;;23.57;48.42
25947;BME280;13745;51.470;9.894;2022-07-01T12:38:40;99677.94;;;23.56;48.45
25947;BME280;13745;51.470;9.894;2022-07-01T12:41:27;99682.78;;;23.40;48.35
25947;BME280;13745;51.470;9.894;2022-07-01T12:44:20;99680.00;;;23.40;48.14
25947;BME280;13745;51.470;9.894;2022-07-01T12:47:17;99681.34;;;23.28;48.58
25947;BME280;13745;51.470;9.894;2022-07-01T12:50:14;99685.72;;;23.29;48.53
25947;BME280;13745;51.470;9.894;2022-07-01T12:53:01;99687.09;;;23.38;48.45
25947;BME280;13745;51.470;9.894;2022-07-01T12:55:49;99687.75;;;23.54;47.93
25947;BME280;13745;51.470;9.894;2022-07-01T12:58:35;99701.09;;;23.74;47.38
25947;BME280;13745;51.470;9.894;2022-07-01T13:01:21;99677.16;;;23.84;47.42
25947;BME280;13745;51.470;9.894;2022-07-01T13:04:07;99683.13;;;24.12;46.85
25947;BME280;13745;51.470;9.894;2022-07-01T13:06:54;99687.47;;;24.13;46.50
25947;BME280;13745;51.470;9.894;2022-07-01T13:09:40;99690.63;;;24.11;46.89
25947;BME280;13745;51.470;9.894;2022-07-01T13:12:26;99686.84;;;23.97;46.96
25947;BME280;13745;51.470;9.894;2022-07-01T13:15:13;99695.53;;;23.70;47.31
25947;BME280;13745;51.470;9.894;2022-07-01T13:17:59;99695.31;;;23.35;47.78
25947;BME280;13745;51.470;9.894;2022-07-01T13:20:45;99704.56;;;23.01;48.53
25947;BME280;13745;51.470;9.894;2022-07-01T13:23:32;99702.94;;;22.78;48.85
25947;BME280;13745;51.470;9.894;2022-07-01T13:26:18;99700.19;;;22.60;49.21
25947;BME280;13745;51.470;9.894;2022-07-01T13:29:04;99688.44;;;22.44;49.37
25947;BME280;13745;51.470;9.894;2022-07-01T13:31:50;99691.97;;;22.26;49.77
25947;BME280;13745;51.470;9.894;2022-07-01T13:34:36;99687.19;;;22.04;49.96
25947;BME280;13745;51.470;9.894;2022-07-01T13:37:22;99683.94;;;21.84;50.42
25947;BME280;13745;51.470;9.894;2022-07-01T13:40:10;99692.59;;;21.67;50.81
25947;BME280;13745;51.470;9.894;2022-07-01T13:42:56;99698.13;;;21.52;51.12
25947;BME280;13745;51.470;9.894;2022-07-01T13:45:41;99707.41;;;21.44;51.27
25947;BME280;13745;51.470;9.894;2022-07-01T13:48:27;99708.72;;;21.35;51.48
25947;BME280;13745;51.470;9.894;2022-07-01T13:51:13;99713.09;;;21.36;51.37
25947;BME280;13745;51.470;9.894;2022-07-01T13:53:59;99717.06;;;21.54;51.21
25947;BME280;13745;51.470;9.894;2022-07-01T13:56:46;99701.63;;;21.98;50.50
25947;BME280;13745;51.470;9.894;2022-07-01T13:59:32;99706.53;;;22.42;49.86
25947;BME280;13745;51.470;9.894;2022-07-01T14:02:18;99703.19;;;22.70;49.42
25947;BME280;13745;51.470;9.894;2022-07-01T14:05:04;99696.00;;;23.06;48.89
25947;BME280;13745;51.470;9.894;2022-07-01T14:07:50;99690.09;;;23.30;48.66
25947;BME280;13745;51.470;9.894;2022-07-01T14:10:36;99692.41;;;23.28;48.81
25947;BME280;13745;51.470;9.894;2022-07-01T14:13:23;99679.97;;;23.37;48.28
25947;BME280;13745;51.470;9.894;2022-07-01T14:16:10;99683.72;;;23.48;47.94
25947;BME280;13745;51.470;9.894;2022-07-01T14:18:56;99684.66;;;23.58;47.87
25947;BME280;13745;51.470;9.894;2022-07-01T14:21:42;99688.44;;;23.73;47.60
25947;BME280;13745;51.470;9.894;2022-07-01T14:24:28;99676.63;;;23.76;47.22
25947;BME280;13745;51.470;9.894;2022-07-01T14:27:14;99690.88;;;23.78;47.30
25947;BME280;13745;51.470;9.894;2022-07-01T14:30:02;99693.22;;;23.76;46.85
25947;BME280;13745;51.470;9.894;2022-07-01T14:32:48;99681.00;;;23.77;47.10
25947;BME280;13745;51.470;9.894;2022-07-01T14:35:34;99693.19;;;23.72;47.26
25947;BME280;13745;51.470;9.894;2022-07-01T14:38:20;99703.63;;;23.57;47.11
25947;BME280;13745;51.470;9.894;2022-07-01T14:41:06;99699.13;;;23.49;47.03
25947;BME280;13745;51.470;9.894;2022-07-01T14:43:52;99699.91;;;23.49;47.14
25947;BME280;13745;51.470;9.894;2022-07-01T14:46:39;99703.19;;;23.55;46.45
25947;BME280;13745;51.470;9.894;2022-07-01T14:49:25;99708.03;;;23.61;46.17
25947;BME280;13745;51.470;9.894;2022-07-01T14:52:11;99713.78;;;23.75;45.97